createdAt,value
2022-12-01T00:00:27.208Z,12.82
2022-12-01T00:01:09.997Z,12.13
2022-12-01T00:01:51.804Z,11.45
2022-12-01T00:02:34.071Z,12.02
2022-12-01T00:03:16.270Z,12.27
2022-12-01T00:03:58.041Z,12.13
2022-12-01T00:04:40.210Z,11.55
2022-12-01T00:05:21.924Z,11.48
2022-12-01T00:06:18.083Z,11.55
2022-12-01T00:06:59.769Z,10.90
2022-12-01T00:07:41.571Z,11.48
2022-12-01T00:08:23.236Z,10.90
2022-12-01T00:09:23.611Z,12.10
2022-12-01T00:10:24.328Z,11.73
2022-12-01T00:11:14.256Z,12.18
2022-12-01T00:11:55.985Z,11.60
2022-12-01T00:12:43.434Z,11.05
2022-12-01T00:13:25.090Z,11.50
2022-12-01T00:14:07.187Z,12.07
2022-12-01T00:14:54.805Z,10.77
2022-12-01T00:15:37.047Z,11.88
2022-12-01T00:16:19.256Z,11.85
2022-12-01T00:17:00.956Z,11.98
2022-12-01T00:17:45.322Z,11.95
2022-12-01T00:18:26.965Z,11.90
2022-12-01T00:19:08.768Z,10.73
2022-12-01T00:19:50.715Z,10.88
2022-12-01T00:20:36.450Z,11.40
2022-12-01T00:21:20.283Z,11.60
2022-12-01T00:22:02.202Z,11.35
2022-12-01T00:22:47.877Z,11.20
2022-12-01T00:23:29.579Z,11.18
2022-12-01T00:24:12.195Z,11.20
2022-12-01T00:24:53.839Z,11.23
2022-12-01T00:25:35.547Z,11.48
2022-12-01T00:26:18.560Z,10.70
2022-12-01T00:27:00.278Z,10.75
2022-12-01T00:27:42.285Z,10.98
2022-12-01T00:28:23.932Z,10.52
2022-12-01T00:29:05.585Z,11.07
2022-12-01T00:29:47.671Z,11.43
2022-12-01T00:30:29.593Z,10.60
2022-12-01T00:31:12.467Z,10.38
2022-12-01T00:31:54.167Z,11.10
2022-12-01T00:32:35.884Z,10.25
2022-12-01T00:33:17.539Z,10.75
2022-12-01T00:33:59.190Z,10.25
2022-12-01T00:34:40.861Z,9.95
2022-12-01T00:35:22.789Z,10.18
2022-12-01T00:36:05.572Z,10.30
2022-12-01T00:36:47.626Z,10.35
2022-12-01T00:37:30.984Z,9.77
2022-12-01T00:38:12.693Z,11.77
2022-12-01T00:38:57.667Z,11.00
2022-12-01T00:39:39.346Z,10.60
2022-12-01T00:40:21.021Z,10.90
2022-12-01T00:41:03.492Z,11.07
2022-12-01T00:41:45.195Z,11.00
2022-12-01T00:42:27.917Z,10.13
2022-12-01T00:43:10.020Z,10.57
2022-12-01T00:43:52.096Z,11.05
2022-12-01T00:44:33.759Z,11.40
2022-12-01T00:45:15.463Z,10.70
2022-12-01T00:45:57.348Z,10.85
2022-12-01T00:46:39.192Z,10.82
2022-12-01T00:47:21.092Z,10.75
2022-12-01T00:48:02.751Z,11.18
2022-12-01T00:48:44.443Z,10.65
2022-12-01T00:49:26.105Z,11.23
2022-12-01T00:50:08.200Z,11.55
2022-12-01T00:50:54.972Z,11.30
2022-12-01T00:51:36.693Z,11.48
2022-12-01T00:52:19.187Z,11.40
2022-12-01T00:53:00.905Z,12.35
2022-12-01T00:53:42.659Z,11.80
2022-12-01T00:54:24.583Z,11.60
2022-12-01T00:55:06.561Z,11.88
2022-12-01T00:55:48.321Z,12.40
2022-12-01T00:56:30.525Z,12.23
2022-12-01T00:57:12.719Z,12.82
2022-12-01T00:57:54.372Z,12.20
2022-12-01T00:58:36.077Z,12.20
2022-12-01T00:59:17.777Z,11.95
2022-12-01T00:59:59.424Z,12.15
2022-12-01T01:00:42.817Z,13.00
2022-12-01T01:01:24.540Z,12.93
2022-12-01T01:02:07.706Z,12.20
2022-12-01T01:02:49.500Z,12.95
2022-12-01T01:03:32.675Z,13.00
2022-12-01T01:04:14.394Z,12.38
2022-12-01T01:04:56.072Z,13.25
2022-12-01T01:05:39.277Z,12.05
2022-12-01T01:06:21.017Z,12.50
2022-12-01T01:07:02.979Z,13.20
2022-12-01T01:07:44.745Z,13.35
2022-12-01T01:08:26.422Z,13.35
2022-12-01T01:09:08.040Z,13.77
2022-12-01T01:09:49.971Z,13.18
2022-12-01T01:10:31.736Z,13.07
2022-12-01T01:11:13.371Z,14.10
2022-12-01T01:11:55.089Z,13.48
2022-12-01T01:12:38.211Z,13.07
2022-12-01T01:13:19.878Z,13.23
2022-12-01T01:14:01.562Z,12.80
2022-12-01T01:14:43.204Z,13.00
2022-12-01T01:15:24.913Z,13.00
2022-12-01T01:16:12.394Z,13.48
2022-12-01T01:16:56.268Z,13.35
2022-12-01T01:17:38.116Z,13.27
2022-12-01T01:18:20.179Z,13.88
2022-12-01T01:19:01.872Z,13.48
2022-12-01T01:19:43.549Z,13.90
2022-12-01T01:20:25.456Z,14.05
2022-12-01T01:21:10.779Z,13.43
2022-12-01T01:21:52.433Z,13.20
2022-12-01T01:22:35.235Z,13.45
2022-12-01T01:23:16.915Z,14.05
2022-12-01T01:23:59.014Z,14.02
2022-12-01T01:24:40.667Z,14.40
2022-12-01T01:25:22.841Z,13.63
2022-12-01T01:26:10.980Z,13.55
2022-12-01T01:26:53.513Z,15.25
2022-12-01T01:27:35.293Z,13.80
2022-12-01T01:28:16.999Z,15.65
2022-12-01T01:29:01.433Z,14.18
2022-12-01T01:29:43.164Z,13.18
2022-12-01T01:30:24.889Z,14.43
2022-12-01T01:31:07.450Z,15.50
2022-12-01T01:31:49.194Z,14.45
2022-12-01T01:32:30.930Z,15.25
2022-12-01T01:33:12.577Z,15.90
2022-12-01T01:33:56.531Z,15.60
2022-12-01T01:34:38.168Z,14.48
2022-12-01T01:35:19.953Z,15.00
2022-12-01T01:36:03.212Z,15.85
2022-12-01T01:36:44.949Z,15.73
2022-12-01T01:37:26.630Z,15.70
2022-12-01T01:38:08.308Z,16.00
2022-12-01T01:38:54.511Z,16.63
2022-12-01T01:39:36.196Z,15.98
2022-12-01T01:40:18.627Z,15.32
2022-12-01T01:41:00.285Z,15.18
2022-12-01T01:41:42.391Z,16.15
2022-12-01T01:42:24.072Z,16.15
2022-12-01T01:43:17.054Z,14.40
2022-12-01T01:44:01.794Z,15.65
2022-12-01T01:44:57.843Z,16.77
2022-12-01T01:45:39.530Z,15.45
2022-12-01T01:46:23.470Z,15.70
2022-12-01T01:47:05.352Z,15.52
2022-12-01T01:47:48.685Z,15.75
2022-12-01T01:48:30.624Z,15.77
2022-12-01T01:49:14.745Z,15.95
2022-12-01T01:49:59.453Z,15.93
2022-12-01T01:50:41.594Z,16.10
2022-12-01T01:51:36.733Z,16.02
2022-12-01T01:52:18.759Z,16.65
2022-12-01T01:53:08.860Z,17.70
2022-12-01T01:53:54.043Z,16.08
2022-12-01T01:54:39.698Z,16.20
2022-12-01T01:55:21.452Z,16.40
2022-12-01T01:56:04.403Z,17.00
2022-12-01T01:56:47.697Z,16.80
2022-12-01T01:57:33.059Z,16.10
2022-12-01T01:58:14.910Z,17.35
2022-12-01T01:58:57.553Z,16.90
2022-12-01T01:59:50.389Z,16.65
2022-12-01T02:00:32.237Z,17.10
2022-12-01T02:01:13.974Z,17.10
2022-12-01T02:02:14.211Z,16.30
2022-12-01T02:02:57.697Z,17.45
2022-12-01T02:03:40.929Z,17.10
2022-12-01T02:04:24.163Z,17.55
2022-12-01T02:05:11.012Z,16.67
2022-12-01T02:05:53.078Z,17.95
2022-12-01T02:06:35.393Z,17.67
2022-12-01T02:07:18.801Z,17.38
2022-12-01T02:08:02.465Z,18.10
2022-12-01T02:08:44.644Z,18.25
2022-12-01T02:09:26.379Z,17.83
2022-12-01T02:10:10.522Z,18.15
2022-12-01T02:11:01.188Z,17.77
2022-12-01T02:11:55.552Z,19.13
2022-12-01T02:12:43.065Z,18.50
2022-12-01T02:13:36.535Z,18.83
2022-12-01T02:14:40.344Z,19.88
2022-12-01T02:15:45.335Z,18.25
2022-12-01T02:16:38.828Z,19.52
2022-12-01T02:17:30.026Z,19.05
2022-12-01T02:18:26.063Z,19.67
2022-12-01T02:19:32.745Z,19.45
2022-12-01T02:20:23.891Z,19.92
2022-12-01T02:21:32.927Z,19.73
2022-12-01T02:22:23.311Z,20.40
2022-12-01T02:23:22.769Z,20.50
2022-12-01T02:24:33.297Z,19.02
2022-12-01T02:25:20.291Z,19.77
2022-12-01T02:26:36.273Z,21.00
2022-12-01T02:27:32.849Z,20.52
2022-12-01T02:28:39.060Z,21.08
2022-12-01T02:29:27.311Z,20.60
2022-12-01T02:30:18.198Z,22.17
2022-12-01T02:31:15.184Z,22.75
2022-12-01T02:32:23.124Z,22.02
2022-12-01T02:33:18.286Z,22.50
2022-12-01T02:34:15.996Z,21.75
2022-12-01T02:35:00.742Z,22.75
2022-12-01T02:35:49.396Z,22.88
2022-12-01T02:36:52.105Z,23.73
2022-12-01T02:37:47.815Z,23.23
2022-12-01T02:38:40.817Z,23.50
2022-12-01T02:39:33.238Z,23.10
2022-12-01T02:40:39.609Z,22.25
2022-12-01T02:41:27.219Z,23.23
2022-12-01T02:42:39.110Z,22.58
2022-12-01T02:43:35.205Z,24.17
2022-12-01T02:44:35.813Z,23.80
2022-12-01T02:45:34.585Z,22.60
2022-12-01T02:46:23.988Z,21.80
2022-12-01T02:47:17.199Z,23.60
2022-12-01T02:48:02.630Z,22.35
2022-12-01T02:48:46.763Z,22.27
2022-12-01T02:49:32.457Z,21.65
2022-12-01T02:50:14.583Z,22.52
2022-12-01T02:51:01.135Z,23.33
2022-12-01T02:51:44.816Z,22.25
2022-12-01T02:52:28.270Z,22.88
2022-12-01T02:53:12.873Z,21.02
2022-12-01T02:53:56.466Z,22.17
2022-12-01T02:54:39.418Z,21.30
2022-12-01T02:55:21.636Z,21.40
2022-12-01T02:56:07.546Z,21.52
2022-12-01T02:56:53.624Z,22.55
2022-12-01T02:57:35.316Z,23.23
2022-12-01T02:58:17.286Z,22.77
2022-12-01T02:58:59.359Z,21.35
2022-12-01T02:59:47.985Z,20.65
2022-12-01T03:00:30.941Z,20.70
2022-12-01T03:01:32.290Z,20.50
2022-12-01T03:02:33.839Z,20.83
2022-12-01T03:03:47.874Z,21.85
2022-12-01T03:04:57.059Z,20.45
2022-12-01T03:06:08.423Z,21.40
2022-12-01T03:07:06.133Z,21.38
2022-12-01T03:08:13.641Z,21.83
2022-12-01T03:09:27.107Z,22.02
2022-12-01T03:10:26.750Z,22.15
2022-12-01T03:11:08.426Z,21.20
2022-12-01T03:12:10.179Z,21.17
2022-12-01T03:13:10.097Z,22.10
2022-12-01T03:14:14.329Z,22.20
2022-12-01T03:15:25.892Z,22.13
2022-12-01T03:16:10.165Z,22.77
2022-12-01T03:16:54.030Z,21.48
2022-12-01T03:17:41.056Z,20.85
2022-12-01T03:18:40.735Z,21.83
2022-12-01T03:19:34.915Z,22.70
2022-12-01T03:20:30.875Z,21.15
2022-12-01T03:21:25.258Z,21.60
2022-12-01T03:22:38.445Z,21.25
2022-12-01T03:23:24.895Z,21.27
2022-12-01T03:24:21.371Z,22.13
2022-12-01T03:25:04.226Z,21.50
2022-12-01T03:25:51.827Z,21.60
2022-12-01T03:26:36.429Z,21.58
2022-12-01T03:27:24.648Z,21.45
2022-12-01T03:28:24.600Z,21.45
2022-12-01T03:29:14.808Z,21.70
2022-12-01T03:29:59.791Z,22.70
2022-12-01T03:30:43.579Z,21.88
2022-12-01T03:31:32.528Z,21.90
2022-12-01T03:32:24.889Z,22.77
2022-12-01T03:33:12.924Z,23.52
2022-12-01T03:34:24.361Z,22.70
2022-12-01T03:35:24.601Z,20.90
2022-12-01T03:36:35.638Z,21.38
2022-12-01T03:37:41.469Z,21.58
2022-12-01T03:38:27.909Z,22.30
2022-12-01T03:39:15.008Z,21.88
2022-12-01T03:40:00.557Z,22.45
2022-12-01T03:40:44.479Z,22.20
2022-12-01T03:41:31.770Z,22.13
2022-12-01T03:42:43.017Z,20.42
2022-12-01T03:43:31.439Z,22.58
2022-12-01T03:44:21.391Z,23.30
2022-12-01T03:45:12.036Z,21.05
2022-12-01T03:46:03.265Z,23.02
2022-12-01T03:47:01.917Z,22.13
2022-12-01T03:47:44.339Z,23.52
2022-12-01T03:48:27.113Z,22.42
2022-12-01T03:49:09.793Z,22.90
2022-12-01T03:49:53.385Z,22.52
2022-12-01T03:50:47.659Z,23.48
2022-12-01T03:51:55.311Z,24.02
2022-12-01T03:53:07.444Z,24.08
2022-12-01T03:54:18.261Z,23.42
2022-12-01T03:55:24.105Z,24.27
2022-12-01T03:56:07.646Z,22.92
2022-12-01T03:57:00.592Z,23.88
2022-12-01T03:57:52.477Z,24.23
2022-12-01T03:58:41.250Z,23.80
2022-12-01T03:59:24.782Z,24.38
2022-12-01T04:00:07.940Z,24.60
2022-12-01T04:00:53.294Z,24.73
2022-12-01T04:01:35.143Z,25.40
2022-12-01T04:02:18.116Z,24.17
2022-12-01T04:03:04.846Z,25.20
2022-12-01T04:03:47.557Z,27.48
2022-12-01T04:04:29.209Z,26.67
2022-12-01T04:05:11.143Z,25.05
2022-12-01T04:05:53.019Z,24.15
2022-12-01T04:06:35.042Z,24.73
2022-12-01T04:07:16.759Z,26.55
2022-12-01T04:07:59.145Z,25.52
2022-12-01T04:08:40.945Z,25.50
2022-12-01T04:09:22.587Z,25.50
2022-12-01T04:10:04.967Z,25.35
2022-12-01T04:10:46.643Z,25.83
2022-12-01T04:11:46.841Z,26.05
2022-12-01T04:12:33.081Z,27.15
2022-12-01T04:13:22.963Z,25.55
2022-12-01T04:14:04.613Z,24.92
2022-12-01T04:14:46.239Z,25.65
2022-12-01T04:15:28.204Z,26.65
2022-12-01T04:16:09.940Z,25.25
2022-12-01T04:16:51.852Z,25.58
2022-12-01T04:17:34.331Z,27.27
2022-12-01T04:18:16.336Z,26.67
2022-12-01T04:18:58.133Z,26.45
2022-12-01T04:19:39.807Z,28.10
2022-12-01T04:20:22.183Z,27.08
2022-12-01T04:21:04.274Z,25.80
2022-12-01T04:21:45.939Z,25.58
2022-12-01T04:22:28.059Z,27.02
2022-12-01T04:23:10.037Z,26.90
2022-12-01T04:24:00.939Z,24.90
2022-12-01T04:24:42.623Z,25.52
2022-12-01T04:25:24.271Z,26.00
2022-12-01T04:26:07.316Z,26.38
2022-12-01T04:26:50.700Z,26.00
2022-12-01T04:27:33.453Z,27.10
2022-12-01T04:28:15.091Z,25.65
2022-12-01T04:28:56.768Z,26.08
2022-12-01T04:29:38.426Z,25.83
2022-12-01T04:30:20.144Z,25.05
2022-12-01T04:31:01.830Z,26.15
2022-12-01T04:31:43.506Z,24.60
2022-12-01T04:32:25.451Z,26.17
2022-12-01T04:33:07.106Z,25.95
2022-12-01T04:33:48.763Z,25.30
2022-12-01T04:34:30.697Z,25.83
2022-12-01T04:35:12.893Z,26.58
2022-12-01T04:35:59.662Z,26.65
2022-12-01T04:36:41.329Z,25.35
2022-12-01T04:37:22.994Z,24.98
2022-12-01T04:38:04.659Z,24.90
2022-12-01T04:38:46.391Z,24.33
2022-12-01T04:39:28.436Z,25.00
2022-12-01T04:40:10.674Z,25.45
2022-12-01T04:40:52.350Z,26.00
2022-12-01T04:41:34.082Z,24.35
2022-12-01T04:42:15.744Z,26.10
2022-12-01T04:42:57.434Z,24.70
2022-12-01T04:43:39.447Z,24.63
2022-12-01T04:44:21.596Z,25.00
2022-12-01T04:45:03.630Z,25.17
2022-12-01T04:45:45.346Z,24.65
2022-12-01T04:46:27.529Z,24.67
2022-12-01T04:47:09.457Z,26.25
2022-12-01T04:47:53.212Z,26.13
2022-12-01T04:48:35.971Z,24.73
2022-12-01T04:49:17.682Z,24.50
2022-12-01T04:50:00.468Z,25.90
2022-12-01T04:50:42.201Z,26.38
2022-12-01T04:51:24.106Z,25.63
2022-12-01T04:52:05.778Z,25.83
2022-12-01T04:52:47.899Z,25.85
2022-12-01T04:53:29.985Z,26.30
2022-12-01T04:54:11.848Z,27.38
2022-12-01T04:54:53.523Z,26.92
2022-12-01T04:55:39.282Z,27.58
2022-12-01T04:56:21.035Z,27.67
2022-12-01T04:57:02.788Z,27.95
2022-12-01T04:57:44.437Z,26.52
2022-12-01T04:58:26.628Z,27.20
2022-12-01T04:59:08.866Z,28.27
2022-12-01T04:59:50.779Z,28.13
2022-12-01T05:00:33.274Z,27.73
2022-12-01T05:01:18.213Z,27.42
2022-12-01T05:02:02.508Z,27.13
2022-12-01T05:02:44.781Z,27.15
2022-12-01T05:03:26.438Z,27.88
2022-12-01T05:04:10.521Z,27.00
2022-12-01T05:04:52.206Z,26.33
2022-12-01T05:05:33.893Z,27.10
2022-12-01T05:06:18.403Z,27.42
2022-12-01T05:07:00.484Z,28.42
2022-12-01T05:07:42.353Z,28.48
2022-12-01T05:08:24.418Z,28.00
2022-12-01T05:09:06.588Z,27.58
2022-12-01T05:09:48.693Z,27.55
2022-12-01T05:10:30.463Z,28.25
2022-12-01T05:11:13.198Z,28.55
2022-12-01T05:11:54.873Z,29.17
2022-12-01T05:12:37.356Z,30.25
2022-12-01T05:13:19.779Z,29.70
2022-12-01T05:14:01.799Z,28.95
2022-12-01T05:14:43.497Z,27.05
2022-12-01T05:15:25.244Z,27.75
2022-12-01T05:16:13.819Z,29.55
2022-12-01T05:16:58.026Z,27.58
2022-12-01T05:17:40.027Z,28.38
2022-12-01T05:18:21.688Z,30.65
2022-12-01T05:19:23.504Z,29.52
2022-12-01T05:20:24.535Z,28.52
2022-12-01T05:21:08.318Z,29.13
2022-12-01T05:21:51.410Z,30.23
2022-12-01T05:23:03.886Z,29.88
2022-12-01T05:23:37.267Z,28.90
2022-12-01T05:24:20.380Z,29.00
2022-12-01T05:25:02.048Z,27.90
2022-12-01T05:25:43.698Z,29.75
2022-12-01T05:26:25.425Z,29.00
2022-12-01T05:27:07.078Z,29.00
2022-12-01T05:27:48.715Z,29.58
2022-12-01T05:28:30.780Z,28.80
2022-12-01T05:29:13.053Z,28.90
2022-12-01T05:29:54.752Z,29.45
2022-12-01T05:30:36.415Z,30.17
2022-12-01T05:31:18.146Z,29.15
2022-12-01T05:31:59.962Z,28.98
2022-12-01T05:32:41.654Z,29.08
2022-12-01T05:33:25.167Z,29.15
2022-12-01T05:34:08.047Z,29.55
2022-12-01T05:34:49.691Z,28.80
2022-12-01T05:35:33.806Z,28.17
2022-12-01T05:36:15.537Z,28.53
2022-12-01T05:36:57.235Z,29.48
2022-12-01T05:37:38.941Z,30.73
2022-12-01T05:38:20.853Z,30.30
2022-12-01T05:39:02.577Z,28.67
2022-12-01T05:39:44.243Z,28.73
2022-12-01T05:40:25.943Z,29.20
2022-12-01T05:41:07.615Z,29.52
2022-12-01T05:41:49.318Z,29.13
2022-12-01T05:42:30.984Z,28.23
2022-12-01T05:43:12.702Z,28.95
2022-12-01T05:43:54.340Z,30.08
2022-12-01T05:44:36.050Z,30.77
2022-12-01T05:45:17.900Z,29.60
2022-12-01T05:45:59.708Z,28.60
2022-12-01T05:46:41.411Z,27.63
2022-12-01T05:47:23.076Z,28.27
2022-12-01T05:48:04.866Z,29.00
2022-12-01T05:48:47.225Z,29.38
2022-12-01T05:49:28.890Z,29.75
2022-12-01T05:50:10.861Z,29.40
2022-12-01T05:50:52.817Z,28.60
2022-12-01T05:51:34.530Z,29.33
2022-12-01T05:52:16.263Z,30.52
2022-12-01T05:52:58.060Z,29.60
2022-12-01T05:53:39.982Z,27.77
2022-12-01T05:54:21.686Z,29.08
2022-12-01T05:55:04.824Z,28.42
2022-12-01T05:55:51.009Z,29.05
2022-12-01T05:56:32.719Z,27.27
2022-12-01T05:57:14.390Z,28.30
2022-12-01T05:57:56.057Z,27.52
2022-12-01T05:58:37.879Z,30.00
2022-12-01T05:59:19.537Z,28.95
2022-12-01T06:00:01.332Z,28.67
2022-12-01T06:00:45.988Z,29.08
2022-12-01T06:01:27.972Z,29.17
2022-12-01T06:02:09.650Z,27.80
2022-12-01T06:02:51.301Z,27.23
2022-12-01T06:03:33.012Z,28.45
2022-12-01T06:04:15.112Z,26.77
2022-12-01T06:04:56.998Z,28.55
2022-12-01T06:05:39.845Z,28.90
2022-12-01T06:06:21.601Z,28.98
2022-12-01T06:07:03.363Z,29.15
2022-12-01T06:07:45.115Z,28.10
2022-12-01T06:08:26.825Z,27.80
2022-12-01T06:09:08.650Z,27.20
2022-12-01T06:09:50.650Z,28.88
2022-12-01T06:10:32.554Z,27.10
2022-12-01T06:11:14.285Z,26.55
2022-12-01T06:11:55.942Z,26.55
2022-12-01T06:12:38.229Z,26.38
2022-12-01T06:13:20.002Z,27.63
2022-12-01T06:14:01.865Z,28.20
2022-12-01T06:14:43.574Z,28.50
2022-12-01T06:15:25.815Z,28.05
2022-12-01T06:16:07.841Z,28.63
2022-12-01T06:16:49.592Z,26.58
2022-12-01T06:17:34.552Z,26.92
2022-12-01T06:18:18.727Z,26.65
2022-12-01T06:19:00.460Z,27.67
2022-12-01T06:19:43.371Z,27.48
2022-12-01T06:20:25.045Z,28.60
2022-12-01T06:21:07.002Z,27.35
2022-12-01T06:21:48.667Z,26.55
2022-12-01T06:22:30.497Z,25.70
2022-12-01T06:23:12.170Z,26.23
2022-12-01T06:23:54.585Z,26.13
2022-12-01T06:24:36.494Z,26.80
2022-12-01T06:25:18.269Z,26.50
2022-12-01T06:25:59.974Z,25.73
2022-12-01T06:26:41.693Z,27.35
2022-12-01T06:27:23.562Z,26.25
2022-12-01T06:28:05.253Z,25.60
2022-12-01T06:28:46.957Z,25.38
2022-12-01T06:29:28.644Z,25.73
2022-12-01T06:30:10.909Z,25.30
2022-12-01T06:30:54.513Z,24.92
2022-12-01T06:31:39.713Z,24.00
2022-12-01T06:32:21.372Z,25.45
2022-12-01T06:33:03.070Z,25.67
2022-12-01T06:33:44.786Z,24.52
2022-12-01T06:34:26.477Z,24.30
2022-12-01T06:35:08.519Z,24.70
2022-12-01T06:36:01.108Z,24.17
2022-12-01T06:36:42.781Z,24.70
2022-12-01T06:37:24.434Z,24.80
2022-12-01T06:38:06.211Z,26.08
2022-12-01T06:38:47.869Z,24.00
2022-12-01T06:39:29.508Z,24.88
2022-12-01T06:40:12.140Z,24.63
2022-12-01T06:40:53.795Z,24.80
2022-12-01T06:41:36.378Z,26.95
2022-12-01T06:42:18.040Z,25.02
2022-12-01T06:43:04.008Z,23.45
2022-12-01T06:43:45.681Z,24.08
2022-12-01T06:44:27.392Z,23.63
2022-12-01T06:45:10.721Z,23.95
2022-12-01T06:45:56.362Z,22.13
2022-12-01T06:46:41.482Z,22.23
2022-12-01T06:47:23.166Z,22.02
2022-12-01T06:48:04.935Z,24.13
2022-12-01T06:48:49.144Z,22.63
2022-12-01T06:49:30.898Z,22.85
2022-12-01T06:50:12.645Z,22.17
2022-12-01T06:50:59.886Z,23.55
2022-12-01T06:51:41.594Z,22.65
2022-12-01T06:52:23.397Z,21.00
2022-12-01T06:53:05.072Z,22.05
2022-12-01T06:53:46.924Z,21.75
2022-12-01T06:54:28.624Z,21.52
2022-12-01T06:55:10.301Z,22.40
2022-12-01T06:55:52.084Z,22.67
2022-12-01T06:56:33.844Z,21.42
2022-12-01T06:57:15.831Z,21.85
2022-12-01T06:58:00.877Z,22.45
2022-12-01T06:58:42.907Z,22.25
2022-12-01T06:59:26.003Z,21.75
2022-12-01T07:00:08.828Z,20.98
2022-12-01T07:00:52.377Z,21.52
2022-12-01T07:01:34.252Z,21.17
2022-12-01T07:02:16.840Z,22.40
2022-12-01T07:02:58.721Z,21.73
2022-12-01T07:03:40.462Z,21.92
2022-12-01T07:04:22.112Z,21.98
2022-12-01T07:05:03.856Z,20.75
2022-12-01T07:05:54.268Z,21.70
2022-12-01T07:06:35.977Z,22.35
2022-12-01T07:07:17.647Z,22.23
2022-12-01T07:08:00.243Z,22.02
2022-12-01T07:08:42.079Z,21.88
2022-12-01T07:09:23.741Z,22.15
2022-12-01T07:10:06.832Z,21.58
2022-12-01T07:11:03.916Z,21.70
2022-12-01T07:11:45.611Z,22.08
2022-12-01T07:12:30.529Z,22.17
2022-12-01T07:13:12.173Z,21.08
2022-12-01T07:13:56.913Z,20.40
2022-12-01T07:14:38.861Z,20.27
2022-12-01T07:15:20.517Z,21.55
2022-12-01T07:16:03.556Z,21.48
2022-12-01T07:16:45.471Z,19.88
2022-12-01T07:17:27.708Z,21.48
2022-12-01T07:18:09.364Z,20.27
2022-12-01T07:18:52.580Z,20.58
2022-12-01T07:19:34.258Z,21.70
2022-12-01T07:20:16.111Z,20.10
2022-12-01T07:21:05.897Z,21.40
2022-12-01T07:21:47.659Z,22.45
2022-12-01T07:22:32.829Z,21.98
2022-12-01T07:23:14.849Z,22.98
2022-12-01T07:23:57.124Z,21.85
2022-12-01T07:24:38.816Z,21.13
2022-12-01T07:25:20.411Z,21.90
2022-12-01T07:26:13.365Z,21.45
2022-12-01T07:26:54.998Z,20.23
2022-12-01T07:27:36.711Z,21.13
2022-12-01T07:28:18.339Z,21.92
2022-12-01T07:29:00.024Z,21.42
2022-12-01T07:29:41.690Z,21.48
2022-12-01T07:30:28.247Z,21.23
2022-12-01T07:31:15.979Z,20.02
2022-12-01T07:31:57.652Z,20.80
2022-12-01T07:32:40.232Z,20.85
2022-12-01T07:33:21.925Z,21.42
2022-12-01T07:34:04.331Z,20.30
2022-12-01T07:34:46.637Z,21.50
2022-12-01T07:35:28.333Z,21.40
2022-12-01T07:36:11.792Z,19.92
2022-12-01T07:36:53.479Z,20.45
2022-12-01T07:37:35.108Z,20.10
2022-12-01T07:38:21.919Z,19.83
2022-12-01T07:39:08.317Z,20.00
2022-12-01T07:39:50.221Z,20.00
2022-12-01T07:40:32.182Z,19.98
2022-12-01T07:41:16.394Z,20.17
2022-12-01T07:41:58.111Z,20.38
2022-12-01T07:42:42.609Z,20.30
2022-12-01T07:43:24.253Z,18.95
2022-12-01T07:44:05.954Z,19.92
2022-12-01T07:44:47.600Z,20.65
2022-12-01T07:45:29.222Z,18.60
2022-12-01T07:46:22.300Z,20.25
2022-12-01T07:47:05.341Z,19.92
2022-12-01T07:47:46.976Z,20.70
2022-12-01T07:48:29.982Z,19.30
2022-12-01T07:49:14.810Z,20.60
2022-12-01T07:49:56.492Z,21.88
2022-12-01T07:50:38.252Z,21.33
2022-12-01T07:51:21.668Z,20.92
2022-12-01T07:52:03.506Z,20.70
2022-12-01T07:52:45.138Z,19.25
2022-12-01T07:53:26.939Z,19.45
2022-12-01T07:54:09.911Z,20.75
2022-12-01T07:54:51.621Z,20.67
2022-12-01T07:55:33.279Z,20.42
2022-12-01T07:56:15.253Z,19.60
2022-12-01T07:56:56.911Z,18.73
2022-12-01T07:57:38.567Z,19.45
2022-12-01T07:58:20.217Z,19.38
2022-12-01T07:59:01.941Z,20.35
2022-12-01T07:59:43.679Z,20.70
2022-12-01T08:00:25.452Z,19.85
2022-12-01T08:01:08.027Z,19.50
2022-12-01T08:01:49.791Z,20.63
2022-12-01T08:02:31.560Z,19.98
2022-12-01T08:03:14.174Z,20.33
2022-12-01T08:03:57.949Z,19.50
2022-12-01T08:04:39.611Z,20.42
2022-12-01T08:05:21.251Z,19.52
2022-12-01T08:06:03.565Z,20.08
2022-12-01T08:06:45.269Z,20.95
2022-12-01T08:07:29.847Z,20.35
2022-12-01T08:08:11.932Z,19.48
2022-12-01T08:08:53.718Z,19.33
2022-12-01T08:09:35.426Z,19.95
2022-12-01T08:10:17.216Z,19.85
2022-12-01T08:11:04.149Z,19.92
2022-12-01T08:11:45.867Z,19.83
2022-12-01T08:12:27.761Z,19.77
2022-12-01T08:13:12.919Z,20.75
2022-12-01T08:13:58.860Z,21.00
2022-12-01T08:14:40.514Z,19.95
2022-12-01T08:15:22.260Z,18.92
2022-12-01T08:16:05.450Z,19.70
2022-12-01T08:16:48.741Z,19.63
2022-12-01T08:17:30.493Z,20.95
2022-12-01T08:18:12.529Z,20.77
2022-12-01T08:18:54.834Z,19.30
2022-12-01T08:19:36.562Z,19.67
2022-12-01T08:20:23.664Z,20.50
2022-12-01T08:21:08.092Z,20.52
2022-12-01T08:21:49.821Z,21.35
2022-12-01T08:22:32.413Z,22.65
2022-12-01T08:23:14.111Z,20.98
2022-12-01T08:23:56.884Z,21.00
2022-12-01T08:24:38.555Z,21.20
2022-12-01T08:25:20.267Z,20.60
2022-12-01T08:26:09.692Z,21.65
2022-12-01T08:26:51.617Z,21.58
2022-12-01T08:27:34.407Z,21.63
2022-12-01T08:28:16.071Z,20.52
2022-12-01T08:28:58.036Z,20.73
2022-12-01T08:29:39.729Z,22.40
2022-12-01T08:30:21.990Z,23.08
2022-12-01T08:31:29.224Z,21.40
2022-12-01T08:32:11.356Z,22.83
2022-12-01T08:32:54.636Z,21.95
2022-12-01T08:33:36.692Z,21.90
2022-12-01T08:34:18.472Z,22.63
2022-12-01T08:35:00.416Z,22.13
2022-12-01T08:35:42.157Z,22.67
2022-12-01T08:36:24.905Z,21.40
2022-12-01T08:37:06.704Z,22.80
2022-12-01T08:37:48.449Z,22.17
2022-12-01T08:38:30.286Z,22.55
2022-12-01T08:39:11.976Z,22.13
2022-12-01T08:39:53.707Z,23.27
2022-12-01T08:40:35.385Z,22.47
2022-12-01T08:41:17.395Z,21.17
2022-12-01T08:41:59.104Z,20.75
2022-12-01T08:42:40.773Z,21.77
2022-12-01T08:43:49.728Z,21.83
2022-12-01T08:44:24.308Z,21.52
2022-12-01T08:45:06.396Z,21.42
2022-12-01T08:45:48.759Z,21.92
2022-12-01T08:46:34.379Z,21.60
2022-12-01T08:47:18.930Z,21.13
2022-12-01T08:48:00.800Z,22.27
2022-12-01T08:48:42.675Z,22.58
2022-12-01T08:49:24.331Z,22.20
2022-12-01T08:50:06.587Z,20.67
2022-12-01T08:50:48.336Z,19.45
2022-12-01T08:51:30.138Z,21.30
2022-12-01T08:52:11.818Z,22.38
2022-12-01T08:52:53.574Z,20.98
2022-12-01T08:53:40.211Z,19.17
2022-12-01T08:54:25.861Z,21.10
2022-12-01T08:55:08.203Z,21.33
2022-12-01T08:55:49.858Z,21.73
2022-12-01T08:56:34.902Z,20.63
2022-12-01T08:57:16.539Z,19.20
2022-12-01T08:57:58.209Z,20.70
2022-12-01T08:58:39.960Z,20.73
2022-12-01T08:59:21.643Z,20.00
2022-12-01T09:00:04.088Z,21.10
2022-12-01T09:00:45.814Z,19.65
2022-12-01T09:01:28.267Z,19.65
2022-12-01T09:02:15.360Z,21.25
2022-12-01T09:02:57.090Z,21.30
2022-12-01T09:03:39.912Z,19.67
2022-12-01T09:04:24.890Z,19.92
2022-12-01T09:05:06.951Z,19.65
2022-12-01T09:05:48.620Z,19.85
2022-12-01T09:06:30.960Z,21.40
2022-12-01T09:07:15.026Z,19.50
2022-12-01T09:08:17.569Z,19.23
2022-12-01T09:09:00.328Z,19.52
2022-12-01T09:09:43.285Z,20.05
2022-12-01T09:10:24.953Z,20.15
2022-12-01T09:11:10.106Z,20.48
2022-12-01T09:11:52.524Z,20.83
2022-12-01T09:12:34.209Z,21.27
2022-12-01T09:13:15.865Z,21.10
2022-12-01T09:13:59.183Z,20.27
2022-12-01T09:14:42.881Z,21.10
2022-12-01T09:15:24.561Z,19.83
2022-12-01T09:16:10.565Z,18.80
2022-12-01T09:16:52.312Z,20.17
2022-12-01T09:17:33.972Z,20.90
2022-12-01T09:18:15.659Z,21.20
2022-12-01T09:18:57.393Z,21.90
2022-12-01T09:19:39.106Z,20.27
2022-12-01T09:20:20.911Z,19.65
2022-12-01T09:21:32.928Z,20.17
2022-12-01T09:22:14.593Z,19.77
2022-12-01T09:22:56.277Z,19.17
2022-12-01T09:23:38.025Z,20.55
2022-12-01T09:24:19.820Z,21.08
2022-12-01T09:25:01.460Z,21.52
2022-12-01T09:25:43.148Z,19.00
2022-12-01T09:26:25.323Z,19.10
2022-12-01T09:27:07.058Z,19.40
2022-12-01T09:27:48.690Z,20.20
2022-12-01T09:28:30.730Z,20.25
2022-12-01T09:29:14.349Z,20.48
2022-12-01T09:29:57.818Z,19.00
2022-12-01T09:30:42.015Z,18.80
2022-12-01T09:31:24.205Z,19.67
2022-12-01T09:32:05.940Z,18.95
2022-12-01T09:32:47.620Z,19.08
2022-12-01T09:33:29.317Z,19.10
2022-12-01T09:34:18.678Z,20.02
2022-12-01T09:35:02.375Z,19.20
2022-12-01T09:35:44.163Z,19.92
2022-12-01T09:36:26.786Z,19.13